Time;durP1;ratioP1;P1;durP2;ratioP2;P2;SDS_P1;SDS_P2;PMS_P1;PMS_P2;Temp;Humidity;BMP_temperature;BMP_pressure;BME280_temperature;BME280_humidity;BME280_pressure;Samples;Min_cycle;Max_cycle;Signal;HPM_P1;HPM_P2
2023/09/11 00:01:15;;;;;;;23.93;12.73;;;21.60;99.90;;;;;;5096739;28;20544;-74
2023/09/11 00:03:41;;;;;;;21.50;12.67;;;21.60;99.90;;;;;;5113649;28;20050;-74
2023/09/11 00:06:07;;;;;;;21.37;11.60;;;21.50;99.90;;;;;;5114159;28;20047;-74
2023/09/11 00:08:34;;;;;;;28.77;11.93;;;21.50;99.90;;;;;;5097025;28;20059;-75
2023/09/11 00:10:59;;;;;;;27.53;13.43;;;21.50;99.90;;;;;;5114155;28;20039;-74
2023/09/11 00:13:27;;;;;;;26.27;12.97;;;21.50;99.90;;;;;;5096469;28;20065;-75
2023/09/11 00:15:52;;;;;;;27.07;11.90;;;21.50;99.90;;;;;;5096437;28;20073;-75
2023/09/11 00:18:18;;;;;;;22.57;12.87;;;21.50;99.90;;;;;;5097156;28;20106;-74
2023/09/11 00:20:44;;;;;;;20.03;11.67;;;21.40;99.90;;;;;;5095779;28;20050;-74
2023/09/11 00:23:11;;;;;;;23.93;12.03;;;21.40;99.90;;;;;;5096797;28;20044;-74
2023/09/11 00:25:38;;;;;;;21.40;11.77;;;21.40;99.90;;;;;;5063395;28;20052;-75
2023/09/11 00:28:04;;;;;;;20.40;11.80;;;21.40;99.90;;;;;;5113827;28;20047;-75
2023/09/11 00:30:31;;;;;;;24.13;12.43;;;21.40;99.90;;;;;;5113611;28;20055;-75
2023/09/11 00:33:03;;;;;;;23.80;12.90;;;21.40;99.90;;;;;;5113901;28;20055;-75
2023/09/11 00:35:29;;;;;;;22.00;12.57;;;21.40;99.90;;;;;;5112179;28;20272;-75
2023/09/11 00:38:00;;;;;;;18.87;11.33;;;21.40;99.90;;;;;;5096845;28;20130;-75
2023/09/11 00:40:26;;;;;;;27.90;12.47;;;21.40;99.90;;;;;;5096405;28;20055;-75
2023/09/11 00:42:55;;;;;;;20.83;12.17;;;21.40;99.90;;;;;;5114628;28;20046;-75
2023/09/11 00:45:22;;;;;;;24.07;12.00;;;21.40;99.90;;;;;;5096496;28;20044;-75
2023/09/11 00:47:48;;;;;;;22.60;12.00;;;21.40;99.90;;;;;;5096487;28;20907;-75
2023/09/11 00:50:20;;;;;;;27.63;12.70;;;21.40;99.90;;;;;;5077182;28;20063;-75
2023/09/11 00:52:46;;;;;;;26.80;12.40;;;21.30;99.90;;;;;;5075731;28;20098;-75
2023/09/11 00:55:12;;;;;;;22.60;12.70;;;21.30;99.90;;;;;;5075978;28;20056;-75
2023/09/11 00:57:46;;;;;;;24.63;12.87;;;21.30;99.90;;;;;;5060984;28;20062;-75
2023/09/11 01:00:13;;;;;;;20.63;12.27;;;21.30;99.90;;;;;;5075665;28;20286;-75
2023/09/11 01:02:41;;;;;;;25.33;12.53;;;21.20;99.90;;;;;;5090821;28;20052;-75
2023/09/11 01:05:09;;;;;;;23.73;12.67;;;21.30;99.90;;;;;;5075932;28;20048;-75
2023/09/11 01:07:35;;;;;;;24.73;13.77;;;21.20;99.90;;;;;;5042199;28;20188;-75
2023/09/11 01:10:06;;;;;;;25.47;12.37;;;21.20;99.90;;;;;;5075581;28;20377;-75
2023/09/11 01:12:36;;;;;;;25.27;12.37;;;21.20;99.90;;;;;;5092427;28;20052;-77
2023/09/11 01:15:04;;;;;;;27.53;13.23;;;21.20;99.90;;;;;;5075713;28;20090;-75
2023/09/11 01:17:42;;;;;;;24.40;13.13;;;21.20;99.90;;;;;;5059074;28;20096;-75
2023/09/11 01:20:30;;;;;;;23.87;13.00;;;21.20;99.90;;;;;;5075639;28;20054;-75
2023/09/11 01:23:08;;;;;;;29.07;12.77;;;21.20;99.90;;;;;;5075305;28;20048;-75
2023/09/11 01:25:58;;;;;;;25.70;12.80;;;21.10;99.90;;;;;;5075233;28;20044;-76
2023/09/11 01:28:54;;;;;;;30.73;13.07;;;21.10;99.90;;;;;;5092269;28;20202;-74
2023/09/11 01:31:26;;;;;;;25.57;12.80;;;21.10;99.90;;;;;;5076800;28;20047;-74
2023/09/11 01:33:53;;;;;;;21.83;12.47;;;21.10;99.90;;;;;;5075161;28;20044;-75
2023/09/11 01:36:19;;;;;;;26.63;12.57;;;21.10;99.90;;;;;;5075563;28;20048;-75
2023/09/11 01:38:45;;;;;;;23.77;12.43;;;21.10;99.90;;;;;;5041865;28;20131;-74
2023/09/11 01:41:14;;;;;;;28.80;13.10;;;21.10;99.90;;;;;;5075194;28;20472;-75
2023/09/11 01:43:44;;;;;;;27.77;12.70;;;21.10;99.90;;;;;;5091166;28;20356;-75
2023/09/11 01:46:18;;;;;;;25.00;13.63;;;21.10;99.90;;;;;;5076257;28;20074;-75
2023/09/11 01:48:45;;;;;;;25.90;13.57;;;21.00;99.90;;;;;;5078380;28;20421;-75
2023/09/11 01:51:12;;;;;;;25.30;13.17;;;21.00;99.90;;;;;;5095134;28;20047;-77
2023/09/11 01:53:40;;;;;;;24.97;12.73;;;21.00;99.90;;;;;;5095185;28;20043;-76
2023/09/11 01:56:06;;;;;;;23.90;12.47;;;21.00;99.90;;;;;;5095427;28;20047;-75
2023/09/11 01:58:33;;;;;;;23.70;13.93;;;21.00;99.90;;;;;;5112184;28;20051;-75
2023/09/11 02:01:00;;;;;;;24.00;13.23;;;20.90;99.90;;;;;;5094972;28;20077;-75
2023/09/11 02:03:27;;;;;;;25.23;12.60;;;20.90;99.90;;;;;;5095558;28;20044;-75
2023/09/11 02:05:54;;;;;;;23.73;12.53;;;20.90;99.90;;;;;;5094446;28;20047;-76
2023/09/11 02:08:20;;;;;;;21.77;13.20;;;21.00;99.90;;;;;;5095216;28;20083;-75
2023/09/11 02:10:46;;;;;;;23.27;12.90;;;21.00;99.90;;;;;;5095043;28;20086;-75
2023/09/11 02:13:12;;;;;;;22.23;12.87;;;20.90;99.90;;;;;;5094868;28;20153;-75
2023/09/11 02:15:38;;;;;;;23.90;12.53;;;20.90;99.90;;;;;;5078438;28;20055;-75
2023/09/11 02:18:04;;;;;;;23.97;13.47;;;21.00;99.90;;;;;;5094802;28;20060;-74
2023/09/11 02:20:29;;;;;;;20.57;12.83;;;20.90;99.90;;;;;;5078023;28;20039;-76
2023/09/11 02:22:55;;;;;;;24.83;12.50;;;21.00;99.90;;;;;;5094654;28;20051;-76
2023/09/11 02:25:21;;;;;;;32.00;12.97;;;21.00;99.90;;;;;;5079175;28;20055;-76
2023/09/11 02:27:47;;;;;;;25.27;12.23;;;21.00;99.90;;;;;;5099095;28;20044;-74
2023/09/11 02:30:13;;;;;;;31.40;12.80;;;20.90;99.90;;;;;;5081941;28;20048;-74
2023/09/11 02:32:39;;;;;;;24.07;13.07;;;20.90;99.90;;;;;;5082555;28;20059;-74
2023/09/11 02:35:05;;;;;;;24.23;12.23;;;20.90;99.90;;;;;;5081804;28;20130;-74
2023/09/11 02:37:31;;;;;;;22.77;12.83;;;20.90;99.90;;;;;;5098977;28;20069;-74
2023/09/11 02:39:58;;;;;;;23.73;13.23;;;20.90;99.90;;;;;;5098561;28;20048;-74
2023/09/11 02:42:23;;;;;;;28.53;12.63;;;20.90;99.90;;;;;;5098603;28;20120;-73
2023/09/11 02:44:50;;;;;;;28.77;13.30;;;20.90;99.90;;;;;;5081798;28;20518;-74
2023/09/11 02:47:16;;;;;;;27.83;12.73;;;20.90;99.90;;;;;;5063948;28;20110;-74
2023/09/11 02:49:44;;;;;;;21.93;12.80;;;20.90;99.90;;;;;;5128963;27;20091;-75
2023/09/11 02:52:10;;;;;;;23.53;13.93;;;20.90;99.90;;;;;;5068767;27;20051;-75
2023/09/11 02:54:35;;;;;;;23.10;12.67;;;20.90;99.90;;;;;;5085167;27;20051;-75
2023/09/11 02:57:01;;;;;;;19.50;13.03;;;20.80;99.90;;;;;;5101772;27;20547;-75
2023/09/11 02:59:27;;;;;;;26.47;13.50;;;20.80;99.90;;;;;;5085190;27;20047;-75
2023/09/11 03:01:53;;;;;;;25.10;13.27;;;20.80;99.90;;;;;;5101528;27;20467;-76
2023/09/11 03:04:18;;;;;;;27.13;13.00;;;20.80;99.90;;;;;;5085000;27;20047;-75
2023/09/11 03:06:44;;;;;;;22.83;13.30;;;20.80;99.90;;;;;;5119014;27;20156;-75
2023/09/11 03:09:10;;;;;;;24.50;13.63;;;20.80;99.90;;;;;;5101786;27;20463;-76
2023/09/11 03:11:36;;;;;;;21.03;13.70;;;20.80;99.90;;;;;;5068254;27;20042;-75
2023/09/11 03:14:11;;;;;;;24.97;14.70;;;20.70;99.90;;;;;;5102568;27;20139;-75
2023/09/11 03:16:45;;;;;;;23.03;13.00;;;20.80;99.90;;;;;;5101761;27;20051;-75
2023/09/11 03:19:11;;;;;;;23.60;13.27;;;20.70;99.90;;;;;;5101252;27;20087;-75
2023/09/11 03:21:38;;;;;;;26.50;14.97;;;20.70;99.90;;;;;;5118311;27;20091;-75
2023/09/11 03:24:04;;;;;;;24.47;13.40;;;20.70;99.90;;;;;;5101390;27;20058;-75
2023/09/11 03:26:30;;;;;;;22.80;14.27;;;20.70;99.90;;;;;;5084584;27;20051;-75
2023/09/11 03:28:56;;;;;;;23.17;14.13;;;20.70;99.90;;;;;;5084360;27;20043;-75
2023/09/11 03:31:22;;;;;;;23.77;14.93;;;20.70;99.90;;;;;;5118595;27;20047;-75
2023/09/11 03:33:48;;;;;;;31.60;14.40;;;20.60;99.90;;;;;;5084194;27;20043;-77
2023/09/11 03:36:15;;;;;;;25.77;13.47;;;20.60;99.90;;;;;;5100447;27;20077;-75
2023/09/11 03:38:41;;;;;;;25.17;14.57;;;20.60;99.90;;;;;;5101486;27;20073;-75
2023/09/11 03:41:07;;;;;;;25.23;13.83;;;20.60;99.90;;;;;;5100733;27;20039;-75
2023/09/11 03:43:33;;;;;;;20.53;13.33;;;20.60;99.90;;;;;;5101296;27;20104;-75
2023/09/11 03:45:59;;;;;;;29.17;13.43;;;20.60;99.90;;;;;;5066610;27;20116;-75
2023/09/11 03:48:24;;;;;;;25.90;14.13;;;20.60;99.90;;;;;;5083502;27;20100;-75
2023/09/11 03:50:53;;;;;;;22.60;14.70;;;20.50;99.90;;;;;;5118020;27;20494;-75
2023/09/11 03:53:22;;;;;;;32.23;14.97;;;20.50;99.90;;;;;;5118115;27;20050;-75
2023/09/11 03:55:48;;;;;;;24.90;14.33;;;20.50;99.90;;;;;;5100540;27;20126;-75
2023/09/11 03:58:15;;;;;;;19.23;13.10;;;20.50;99.90;;;;;;5117097;27;20062;-75
2023/09/11 04:00:41;;;;;;;26.87;14.83;;;20.50;99.90;;;;;;5084246;27;20043;-76
2023/09/11 04:03:07;;;;;;;27.47;14.67;;;20.50;99.90;;;;;;5100433;27;20395;-76
2023/09/11 04:05:33;;;;;;;23.40;15.20;;;20.40;99.90;;;;;;5084060;27;20058;-76
2023/09/11 04:07:58;;;;;;;21.30;14.80;;;20.40;99.90;;;;;;5117548;27;20118;-76
2023/09/11 04:10:24;;;;;;;23.93;14.63;;;20.50;99.90;;;;;;5083826;27;20509;-75
2023/09/11 04:12:50;;;;;;;25.83;14.87;;;20.40;99.90;;;;;;5100757;27;20483;-75
2023/09/11 04:15:16;;;;;;;26.47;14.33;;;20.40;99.90;;;;;;5117156;27;20058;-75
2023/09/11 04:17:45;;;;;;;34.97;14.90;;;20.40;99.90;;;;;;5117890;27;20043;-75
2023/09/11 04:20:11;;;;;;;21.77;14.67;;;20.40;99.90;;;;;;5083266;27;20443;-75
2023/09/11 04:22:36;;;;;;;19.63;13.80;;;20.40;99.90;;;;;;5083508;27;20047;-75
2023/09/11 04:25:03;;;;;;;24.47;13.53;;;20.40;99.90;;;;;;5117249;27;20051;-75
2023/09/11 04:27:29;;;;;;;20.87;13.90;;;20.40;99.90;;;;;;5083280;27;20406;-75
2023/09/11 04:30:00;;;;;;;23.40;14.30;;;20.40;99.90;;;;;;5101060;27;20058;-75
2023/09/11 04:32:27;;;;;;;25.10;15.10;;;20.40;99.90;;;;;;5083615;27;20047;-75
2023/09/11 04:34:53;;;;;;;24.67;15.03;;;20.40;99.90;;;;;;5100243;27;20145;-75
2023/09/11 04:37:19;;;;;;;23.27;14.10;;;20.40;99.90;;;;;;5099915;27;20134;-75
2023/09/11 04:39:45;;;;;;;24.20;15.17;;;20.30;99.90;;;;;;5117194;27;20039;-75
2023/09/11 04:42:10;;;;;;;23.57;14.77;;;20.30;99.90;;;;;;5082706;27;20493;-75
2023/09/11 04:44:36;;;;;;;26.40;15.47;;;20.40;99.90;;;;;;5100378;27;20077;-75
2023/09/11 04:47:02;;;;;;;26.40;15.87;;;20.40;99.90;;;;;;5083020;27;20039;-75
2023/09/11 04:49:29;;;;;;;26.07;15.30;;;20.40;99.90;;;;;;5082496;27;20063;-75
2023/09/11 04:51:55;;;;;;;27.17;15.13;;;20.40;99.90;;;;;;5135127;27;20086;-75
2023/09/11 04:54:24;;;;;;;26.53;15.03;;;20.40;99.90;;;;;;5100579;27;20047;-75
2023/09/11 04:56:50;;;;;;;24.13;15.30;;;20.40;99.90;;;;;;5116805;27;20498;-74
2023/09/11 04:59:15;;;;;;;19.63;14.43;;;20.40;99.90;;;;;;5116369;27;20050;-74
2023/09/11 05:01:41;;;;;;;25.53;15.57;;;20.40;99.90;;;;;;5099473;27;20045;-74
2023/09/11 05:04:10;;;;;;;23.33;14.40;;;20.40;99.90;;;;;;5116708;27;20043;-74
2023/09/11 05:06:36;;;;;;;24.13;15.67;;;20.40;99.90;;;;;;5082684;27;20156;-75
2023/09/11 05:09:02;;;;;;;26.47;14.73;;;20.50;99.90;;;;;;5082426;27;20053;-75
2023/09/11 05:11:28;;;;;;;27.47;14.17;;;20.50;99.90;;;;;;5083362;27;20510;-75
2023/09/11 05:13:55;;;;;;;25.83;14.27;;;20.50;99.90;;;;;;5082442;27;20043;-75
2023/09/11 05:16:21;;;;;;;24.90;14.27;;;20.60;99.90;;;;;;5097933;27;20120;-75
2023/09/11 05:18:51;;;;;;;26.23;14.90;;;20.50;99.90;;;;;;5116583;27;20051;-75
2023/09/11 05:21:17;;;;;;;26.43;15.20;;;20.60;99.90;;;;;;5081804;27;20039;-75
2023/09/11 05:23:42;;;;;;;26.10;14.60;;;20.60;99.90;;;;;;5081654;27;20061;-74
2023/09/11 05:26:09;;;;;;;20.93;14.70;;;20.70;99.90;;;;;;5081833;27;20050;-75
2023/09/11 05:28:34;;;;;;;23.80;14.77;;;20.70;99.90;;;;;;5116167;27;20046;-75
2023/09/11 05:31:00;;;;;;;24.20;14.53;;;20.80;99.90;;;;;;5081995;27;20039;-74
2023/09/11 05:33:26;;;;;;;28.67;14.57;;;20.80;99.90;;;;;;5115450;27;20043;-74
2023/09/11 05:35:52;;;;;;;22.70;14.77;;;20.80;99.90;;;;;;5098281;27;20070;-74
2023/09/11 05:38:18;;;;;;;24.90;15.33;;;20.90;99.90;;;;;;5098186;27;20051;-75
2023/09/11 05:40:43;;;;;;;20.27;13.83;;;20.90;99.90;;;;;;5115930;27;20043;-74
2023/09/11 05:43:09;;;;;;;23.50;14.57;;;20.90;99.90;;;;;;5115593;27;20043;-75
2023/09/11 05:45:35;;;;;;;23.70;15.27;;;21.00;99.90;;;;;;5114406;27;20051;-75
2023/09/11 05:48:00;;;;;;;27.37;14.50;;;21.00;99.90;;;;;;5098842;27;20042;-75
2023/09/11 05:50:26;;;;;;;19.77;14.50;;;21.10;99.90;;;;;;5094399;28;20062;-75
2023/09/11 05:52:52;;;;;;;22.60;14.20;;;21.20;99.90;;;;;;5112601;28;20059;-75
2023/09/11 05:55:18;;;;;;;20.17;14.00;;;21.20;99.90;;;;;;5095106;28;20452;-75
2023/09/11 05:57:43;;;;;;;23.30;13.73;;;21.30;99.90;;;;;;5078463;28;20116;-75
2023/09/11 06:00:12;;;;;;;24.57;14.20;;;21.40;99.90;;;;;;5077050;28;20123;-76
2023/09/11 06:02:46;;;;;;;27.05;14.20;;;21.50;99.90;;;;;;5080897;28;20051;-75
2023/09/11 06:05:12;;;;;;;19.73;14.07;;;21.50;99.90;;;;;;5078192;28;20052;-76
2023/09/11 06:07:40;;;;;;;23.70;14.40;;;21.60;99.90;;;;;;5112189;28;20043;-75
2023/09/11 06:10:07;;;;;;;25.10;14.27;;;21.70;99.90;;;;;;5078091;28;20368;-75
2023/09/11 06:12:34;;;;;;;19.30;13.50;;;21.80;99.90;;;;;;5095393;28;20054;-75
2023/09/11 06:15:06;;;;;;;23.60;14.40;;;21.90;99.90;;;;;;5078072;28;20039;-75
2023/09/11 06:17:35;;;;;;;25.03;14.63;;;22.20;99.90;;;;;;5094562;28;20074;-73
2023/09/11 06:20:01;;;;;;;23.47;13.60;;;22.40;99.90;;;;;;5094868;28;20107;-75
2023/09/11 06:22:28;;;;;;;28.80;15.43;;;22.40;99.90;;;;;;5094489;28;20544;-75
2023/09/11 06:24:54;;;;;;;20.73;13.33;;;22.50;99.90;;;;;;5111976;28;20356;-75
2023/09/11 06:27:25;;;;;;;20.70;12.67;;;22.50;99.90;;;;;;5079104;28;20055;-75
2023/09/11 06:29:57;;;;;;;17.77;12.83;;;22.60;99.90;;;;;;5096168;28;20100;-75
2023/09/11 06:32:23;;;;;;;20.43;13.57;;;22.60;99.90;;;;;;5094405;28;20357;-76
2023/09/11 06:34:48;;;;;;;22.37;13.27;;;22.80;99.90;;;;;;5061603;28;20055;-75
2023/09/11 06:37:19;;;;;;;22.93;14.10;;;23.10;99.90;;;;;;5111696;28;20519;-75
2023/09/11 06:39:44;;;;;;;24.13;13.13;;;23.40;99.90;;;;;;5078143;28;20052;-75
2023/09/11 06:42:22;;;;;;;23.43;12.87;;;24.10;99.90;;;;;;5061277;28;20169;-75
2023/09/11 06:44:51;;;;;;;26.53;13.37;;;24.70;99.90;;;;;;5094016;28;20050;-75
2023/09/11 06:47:18;;;;;;;17.80;12.90;;;25.10;99.90;;;;;;5094245;28;20052;-72
2023/09/11 06:49:44;;;;;;;20.70;12.20;;;25.50;99.90;;;;;;5078912;27;20051;-74
2023/09/11 06:52:09;;;;;;;23.70;12.07;;;26.40;99.90;;;;;;5114930;28;20074;-74
2023/09/11 06:54:35;;;;;;;16.60;12.00;;;27.30;99.90;;;;;;5081094;28;20047;-74
2023/09/11 06:57:01;;;;;;;22.23;12.00;;;28.10;99.90;;;;;;5115057;28;20047;-73
2023/09/11 06:59:27;;;;;;;21.80;10.17;;;28.20;99.90;;;;;;5080973;28;20047;-74
2023/09/11 07:01:52;;;;;;;22.87;10.67;;;28.20;99.90;;;;;;5081193;28;20142;-72
2023/09/11 07:04:18;;;;;;;19.80;10.90;;;28.00;99.90;;;;;;5133039;28;20082;-74
2023/09/11 07:06:44;;;;;;;17.63;10.87;;;27.70;99.90;;;;;;5098484;28;20130;-73
2023/09/11 07:09:10;;;;;;;20.73;11.27;;;27.60;99.90;;;;;;5098148;28;20550;-73
2023/09/11 07:11:36;;;;;;;20.67;12.00;;;27.40;99.90;;;;;;5099223;27;20118;-74
2023/09/11 07:14:02;;;;;;;17.30;10.57;;;27.70;99.90;;;;;;5118552;27;20118;-73
2023/09/11 07:16:28;;;;;;;21.25;11.05;;;28.30;99.90;;;;;;5067895;27;20043;-72
2023/09/11 07:18:54;;;;;;;17.83;10.65;;;29.30;99.90;;;;;;5118739;27;20103;-72
2023/09/11 07:21:20;;;;;;;15.20;10.05;;;30.20;99.90;;;;;;5101409;27;20470;-73
2023/09/11 07:23:45;;;;;;;15.77;10.80;;;30.90;99.90;;;;;;5118551;27;20470;-72
2023/09/11 07:26:11;;;;;;;18.60;10.48;;;31.40;97.30;;;;;;5101606;27;20126;-72
2023/09/11 07:28:54;;;;;;;14.50;10.77;;;31.60;94.60;;;;;;5118439;27;20047;-72
2023/09/11 07:31:20;;;;;;;16.40;10.65;;;32.00;85.40;;;;;;5101281;27;20043;-73
2023/09/11 07:33:46;;;;;;;18.40;10.90;;;32.40;90.70;;;;;;5101474;27;20047;-72
2023/09/11 07:36:13;;;;;;;16.77;9.88;;;32.80;85.30;;;;;;5101321;27;20043;-72
2023/09/11 07:38:44;;;;;;;19.65;10.68;;;32.80;80.20;;;;;;5136353;27;20058;-73
2023/09/11 07:41:11;;;;;;;13.27;10.18;;;32.70;77.90;;;;;;5085294;27;20077;-73
2023/09/11 07:43:36;;;;;;;14.38;9.20;;;32.60;78.10;;;;;;5136284;27;20463;-72
2023/09/11 07:46:02;;;;;;;20.10;11.05;;;32.20;77.60;;;;;;5136316;27;20135;-75
2023/09/11 07:48:28;;;;;;;19.63;10.98;;;31.80;79.50;;;;;;5098990;27;20059;-75
2023/09/11 07:50:57;;;;;;;15.30;10.48;;;31.30;79.00;;;;;;5067143;27;20376;-75
2023/09/11 07:53:23;;;;;;;17.40;10.70;;;30.80;83.00;;;;;;5083933;27;20130;-76
2023/09/11 07:55:49;;;;;;;18.23;11.07;;;30.40;85.60;;;;;;5100755;27;20122;-75
2023/09/11 07:58:18;;;;;;;15.75;11.13;;;30.00;89.40;;;;;;5117168;27;20063;-75
2023/09/11 08:00:43;;;;;;;20.00;11.65;;;29.60;91.70;;;;;;5100820;27;20035;-75
2023/09/11 08:03:10;;;;;;;21.02;11.13;;;29.40;92.90;;;;;;5100813;27;20043;-74
2023/09/11 08:05:36;;;;;;;17.35;11.68;;;29.10;94.70;;;;;;5100968;27;20120;-74
2023/09/11 08:08:02;;;;;;;22.13;13.07;;;28.80;95.90;;;;;;5084211;27;20054;-74
2023/09/11 08:10:30;;;;;;;20.42;11.85;;;28.60;96.80;;;;;;5067269;27;20039;-74
2023/09/11 08:12:56;;;;;;;15.80;11.18;;;28.40;97.80;;;;;;5083974;27;20051;-74
2023/09/11 08:15:28;;;;;;;20.05;12.40;;;28.30;98.60;;;;;;5083291;27;20039;-77
2023/09/11 08:18:03;;;;;;;21.02;11.80;;;28.20;99.40;;;;;;5131196;27;20107;-74
2023/09/11 08:20:28;;;;;;;19.58;11.48;;;28.00;99.90;;;;;;5117494;27;20047;-74
2023/09/11 08:22:58;;;;;;;22.80;12.00;;;27.90;99.90;;;;;;5099834;27;20074;-74
2023/09/11 08:25:24;;;;;;;20.25;11.43;;;27.80;99.90;;;;;;5117341;27;20096;-75
2023/09/11 08:27:50;;;;;;;22.30;12.07;;;27.70;99.90;;;;;;5100860;27;20082;-74
2023/09/11 08:30:16;;;;;;;18.05;11.88;;;27.60;99.90;;;;;;5067081;27;20094;-74
2023/09/11 08:32:49;;;;;;;19.77;12.32;;;27.50;99.90;;;;;;5085310;27;20119;-74
2023/09/11 08:35:15;;;;;;;19.98;12.00;;;27.40;99.90;;;;;;5099864;27;20051;-74
2023/09/11 08:37:46;;;;;;;22.17;13.13;;;27.40;99.90;;;;;;5101020;27;20043;-74
2023/09/11 08:40:12;;;;;;;22.40;12.55;;;27.30;99.90;;;;;;5100314;27;20055;-74
2023/09/11 08:42:38;;;;;;;20.58;13.45;;;27.20;99.90;;;;;;5082626;27;20055;-74
2023/09/11 08:45:05;;;;;;;23.05;13.05;;;27.20;99.90;;;;;;5100385;27;20043;-74
2023/09/11 08:47:33;;;;;;;20.10;13.95;;;27.20;99.90;;;;;;5100124;27;20055;-74
2023/09/11 08:50:04;;;;;;;17.70;13.20;;;27.20;99.90;;;;;;5099943;27;20065;-74
2023/09/11 08:52:31;;;;;;;26.80;13.75;;;27.10;99.90;;;;;;5099798;27;20054;-74
2023/09/11 08:55:02;;;;;;;19.83;12.30;;;27.10;99.90;;;;;;5100285;27;20083;-74
2023/09/11 08:57:31;;;;;;;20.10;13.35;;;27.00;99.90;;;;;;5116872;27;20051;-74
2023/09/11 09:00:08;;;;;;;;;;;27.10;99.90;;;;;;5116924;27;20116;-73
2023/09/11 09:02:34;;;;;;;22.95;14.27;;;27.00;99.90;;;;;;5116322;27;19983;-71
2023/09/11 09:05:05;;;;;;;20.25;13.80;;;26.90;99.90;;;;;;5116590;27;20051;-74
2023/09/11 09:07:32;;;;;;;22.92;14.38;;;26.80;99.90;;;;;;5116514;27;20079;-71
2023/09/11 09:09:58;;;;;;;26.25;14.95;;;26.80;99.90;;;;;;5099732;27;20543;-74
2023/09/11 09:12:26;;;;;;;21.50;14.32;;;26.80;99.90;;;;;;5099718;27;20053;-73
2023/09/11 09:14:52;;;;;;;19.30;13.60;;;26.80;99.90;;;;;;5116345;27;20118;-74
2023/09/11 09:17:17;;;;;;;19.80;13.43;;;26.80;99.90;;;;;;5099771;27;20065;-73
2023/09/11 09:19:43;;;;;;;23.50;14.48;;;26.80;99.90;;;;;;5082402;27;20047;-73
2023/09/11 09:22:12;;;;;;;19.77;12.68;;;26.70;99.90;;;;;;5099055;27;20050;-72
2023/09/11 09:24:49;;;;;;;16.23;13.60;;;26.70;99.90;;;;;;5116026;27;20475;-73
2023/09/11 09:27:15;;;;;;;19.05;12.25;;;26.80;99.90;;;;;;5099363;27;20494;-73
2023/09/11 09:29:41;;;;;;;18.00;13.70;;;26.70;99.90;;;;;;5081709;27;20066;-73
2023/09/11 09:32:08;;;;;;;19.73;13.73;;;26.70;99.90;;;;;;5098970;27;20091;-73
2023/09/11 09:34:36;;;;;;;19.90;15.00;;;26.80;99.90;;;;;;5098965;27;20050;-73
2023/09/11 09:37:02;;;;;;;20.17;14.30;;;26.90;99.90;;;;;;5082023;27;20118;-73
2023/09/11 09:39:29;;;;;;;19.93;14.33;;;26.90;99.90;;;;;;5098931;27;20065;-74
2023/09/11 09:41:56;;;;;;;20.55;14.18;;;26.90;99.90;;;;;;5098527;27;20142;-74
2023/09/11 09:44:33;;;;;;;19.80;15.33;;;26.90;99.90;;;;;;5115494;27;20096;-74
2023/09/11 09:47:17;;;;;;;21.37;14.30;;;26.90;99.90;;;;;;5099614;27;20050;-74
2023/09/11 09:50:01;;;;;;;19.25;16.25;;;26.90;99.90;;;;;;5129658;27;21389;-74
2023/09/11 09:52:28;;;;;;;17.98;15.38;;;27.00;99.90;;;;;;5098930;27;20058;-74
2023/09/11 09:54:56;;;;;;;18.75;16.83;;;27.00;99.90;;;;;;5098675;27;20043;-74
2023/09/11 09:57:25;;;;;;;23.70;17.53;;;27.00;99.90;;;;;;5115729;27;20043;-73
2023/09/11 09:59:57;;;;;;;21.17;17.55;;;27.00;99.90;;;;;;5098322;27;20372;-75
2023/09/11 10:02:38;;;;;;;19.33;17.02;;;26.90;99.90;;;;;;5115451;27;20112;-74
2023/09/11 10:05:07;;;;;;;19.80;14.32;;;26.90;99.90;;;;;;5134134;27;20136;-75
2023/09/11 10:07:38;;;;;;;25.50;16.93;;;26.90;99.90;;;;;;5115646;27;20051;-75
2023/09/11 10:10:29;;;;;;;19.63;16.48;;;27.00;99.90;;;;;;5098419;27;20530;-74
2023/09/11 10:13:15;;;;;;;18.17;15.37;;;27.00;99.90;;;;;;5098464;28;20071;-75
2023/09/11 10:15:42;;;;;;;22.65;14.68;;;26.90;99.90;;;;;;5115156;28;20536;-75
2023/09/11 10:18:12;;;;;;;18.40;15.33;;;26.90;99.90;;;;;;5082020;28;20047;-75
2023/09/11 10:20:39;;;;;;;19.25;15.77;;;26.90;99.90;;;;;;5115150;28;20047;-75
2023/09/11 10:23:07;;;;;;;23.67;16.42;;;26.90;99.90;;;;;;5098740;28;20125;-73
2023/09/11 10:25:36;;;;;;;20.00;16.08;;;26.80;99.90;;;;;;5115534;28;20051;-73
2023/09/11 10:28:13;;;;;;;20.50;15.20;;;26.80;99.90;;;;;;5098278;28;20061;-74
2023/09/11 10:30:52;;;;;;;18.65;15.25;;;26.90;99.90;;;;;;5097820;28;20051;-78
2023/09/11 10:33:35;;;;;;;21.63;16.42;;;26.80;99.90;;;;;;5115258;28;20544;-76
2023/09/11 10:36:08;;;;;;;18.47;14.37;;;26.80;99.90;;;;;;5098025;28;20051;-75
2023/09/11 10:38:37;;;;;;;19.90;15.10;;;26.80;99.90;;;;;;5115524;28;20050;-76
2023/09/11 10:41:15;;;;;;;19.57;14.27;;;26.80;99.90;;;;;;5100234;28;20119;-75
2023/09/11 10:43:41;;;;;;;17.77;15.17;;;26.80;99.90;;;;;;5098148;28;20480;-75
2023/09/11 10:46:22;;;;;;;17.97;14.87;;;26.70;99.90;;;;;;5099216;27;20083;-75
2023/09/11 10:48:50;;;;;;;21.77;14.53;;;26.80;99.90;;;;;;5119223;27;20061;-76
2023/09/11 10:51:16;;;;;;;17.20;14.80;;;26.80;99.90;;;;;;5102115;27;20059;-76
2023/09/11 10:53:42;;;;;;;17.93;13.67;;;26.80;99.90;;;;;;5113181;27;20544;-75
2023/09/11 10:56:09;;;;;;;16.23;13.20;;;26.70;99.90;;;;;;5119238;27;20043;-75
2023/09/11 10:58:35;;;;;;;20.77;15.57;;;26.70;99.90;;;;;;5119312;27;20068;-75
2023/09/11 11:01:08;;;;;;;17.95;14.10;;;26.70;99.90;;;;;;5119077;27;20043;-75
2023/09/11 11:03:35;;;;;;;19.67;13.93;;;26.80;99.90;;;;;;5135941;27;20058;-73
2023/09/11 11:06:02;;;;;;;16.02;12.40;;;26.80;99.90;;;;;;5118683;27;20562;-76
2023/09/11 11:08:36;;;;;;;14.20;12.70;;;26.80;99.90;;;;;;5137330;27;20386;-78
2023/09/11 11:11:02;;;;;;;;;;;26.80;99.90;;;;;;5137699;27;20043;-77
2023/09/11 11:13:29;;;;;;;16.47;12.27;;;26.80;99.90;;;;;;5134074;27;19926;-78
2023/09/11 11:16:20;;;;;;;15.23;12.30;;;26.90;99.90;;;;;;5139243;27;20042;-78
2023/09/11 11:18:45;;;;;;;17.13;11.67;;;26.90;99.90;;;;;;5139288;27;20054;-77
2023/09/11 11:21:14;;;;;;;13.57;10.10;;;26.90;99.90;;;;;;5139246;27;20387;-77
2023/09/11 11:23:58;;;;;;;16.43;11.30;;;27.00;99.90;;;;;;5157312;27;20042;-77
2023/09/11 11:26:25;;;;;;;23.73;11.63;;;26.90;99.90;;;;;;5139376;27;20043;-77
2023/09/11 11:28:51;;;;;;;20.23;12.17;;;27.00;99.90;;;;;;5157035;27;20463;-77
2023/09/11 11:31:21;;;;;;;16.87;10.93;;;27.00;99.90;;;;;;5139276;27;20086;-78
2023/09/11 11:33:49;;;;;;;12.17;8.57;;;26.90;99.90;;;;;;5121715;27;20053;-78
2023/09/11 11:36:17;;;;;;;10.17;6.87;;;26.90;99.90;;;;;;5121897;27;20106;-77
2023/09/11 11:38:43;;;;;;;13.23;7.23;;;27.00;99.90;;;;;;5138777;27;20046;-77
2023/09/11 11:41:10;;;;;;;9.67;6.17;;;26.90;99.90;;;;;;5121662;27;20078;-76
2023/09/11 11:43:36;;;;;;;10.30;6.33;;;27.00;99.90;;;;;;5138976;27;20133;-77
2023/09/11 11:46:06;;;;;;;9.23;5.63;;;26.90;99.90;;;;;;5121647;27;20059;-77
2023/09/11 11:48:33;;;;;;;9.80;5.45;;;27.00;99.90;;;;;;5138608;27;20039;-77
2023/09/11 11:50:59;;;;;;;9.23;4.90;;;27.00;99.90;;;;;;5156793;27;20047;-72
2023/09/11 11:53:25;;;;;;;14.97;4.90;;;27.00;99.90;;;;;;5138955;27;20078;-71
2023/09/11 11:55:56;;;;;;;8.13;4.67;;;27.00;99.90;;;;;;5138219;27;20145;-73
2023/09/11 11:58:23;;;;;;;8.03;4.57;;;26.90;99.90;;;;;;5138429;27;20111;-72
2023/09/11 12:00:59;;;;;;;7.87;4.43;;;26.90;99.90;;;;;;5121390;27;20042;-72
2023/09/11 12:03:27;;;;;;;7.65;4.28;;;26.90;99.90;;;;;;5156842;27;20042;-73
2023/09/11 12:05:54;;;;;;;7.63;4.22;;;26.90;99.90;;;;;;5138098;27;20111;-73
2023/09/11 12:08:21;;;;;;;9.40;4.33;;;26.90;99.90;;;;;;5156980;27;20423;-73
2023/09/11 12:10:50;;;;;;;10.50;4.00;;;26.90;99.90;;;;;;5138557;27;20061;-73
2023/09/11 12:13:18;;;;;;;8.40;4.43;;;26.90;99.90;;;;;;5121322;27;20047;-74
2023/09/11 12:15:58;;;;;;;10.33;5.00;;;26.90;99.90;;;;;;5154889;27;20049;-78
2023/09/11 12:18:25;;;;;;;13.80;5.27;;;26.90;99.90;;;;;;5119849;27;20077;-73
2023/09/11 12:21:10;;;;;;;22.80;6.10;;;26.90;99.90;;;;;;5120923;27;20035;-77
2023/09/11 12:23:35;;;;;;;12.90;5.15;;;26.80;99.90;;;;;;5156568;27;20042;-76
2023/09/11 12:26:06;;;;;;;14.00;5.00;;;26.80;99.90;;;;;;5121476;27;20058;-79
2023/09/11 12:28:37;;;;;;;9.63;5.73;;;26.80;99.90;;;;;;5113257;28;20063;-79
2023/09/11 12:31:06;;;;;;;15.63;6.22;;;26.80;99.90;;;;;;5096649;28;20056;-79
2023/09/11 12:33:35;;;;;;;9.70;6.20;;;26.80;99.90;;;;;;5062964;28;20059;-78